createdAt,value
2023-05-12T00:00:18.467Z,100.00
2023-05-12T00:02:23.132Z,100.00
2023-05-12T00:04:26.548Z,100.00
2023-05-12T00:06:29.849Z,100.00
2023-05-12T00:08:32.246Z,100.00
2023-05-12T00:10:36.966Z,100.00
2023-05-12T00:12:40.230Z,100.00
2023-05-12T00:14:43.757Z,100.00
2023-05-12T00:16:51.324Z,100.00
2023-05-12T00:18:55.071Z,100.00
2023-05-12T00:20:58.867Z,100.00
2023-05-12T00:23:02.232Z,100.00
2023-05-12T00:25:06.339Z,100.00
2023-05-12T00:27:11.109Z,100.00
2023-05-12T00:29:15.190Z,100.00
2023-05-12T00:31:18.513Z,100.00
2023-05-12T00:33:21.830Z,100.00
2023-05-12T00:35:25.354Z,100.00
2023-05-12T00:37:28.759Z,100.00
2023-05-12T00:39:32.043Z,100.00
2023-05-12T00:41:35.491Z,100.00
2023-05-12T00:43:40.179Z,100.00
2023-05-12T00:45:43.686Z,100.00
2023-05-12T00:47:47.539Z,100.00
2023-05-12T00:49:50.878Z,100.00
2023-05-12T00:51:55.931Z,100.00
2023-05-12T00:54:00.351Z,100.00
2023-05-12T00:56:03.764Z,100.00
2023-05-12T00:58:07.326Z,100.00
2023-05-12T01:00:14.158Z,100.00
2023-05-12T01:02:19.495Z,100.00
2023-05-12T01:04:23.434Z,100.00
2023-05-12T01:06:31.023Z,100.00
2023-05-12T01:08:36.250Z,100.00
2023-05-12T01:10:45.275Z,100.00
2023-05-12T01:12:50.981Z,100.00
2023-05-12T01:14:58.295Z,100.00
2023-05-12T01:17:08.983Z,100.00
2023-05-12T01:19:27.418Z,100.00
2023-05-12T01:21:31.874Z,100.00
2023-05-12T01:23:39.223Z,100.00
2023-05-12T01:25:44.516Z,100.00
2023-05-12T01:27:51.017Z,100.00
2023-05-12T01:29:55.940Z,100.00
2023-05-12T01:32:00.303Z,100.00
2023-05-12T01:34:03.699Z,100.00
2023-05-12T01:36:07.872Z,100.00
2023-05-12T01:38:11.814Z,100.00
2023-05-12T01:40:18.508Z,100.00
2023-05-12T01:42:22.038Z,100.00
2023-05-12T01:44:27.840Z,100.00
2023-05-12T01:46:31.463Z,100.00
2023-05-12T01:48:36.966Z,100.00
2023-05-12T01:50:42.524Z,100.00
2023-05-12T01:52:49.996Z,100.00
2023-05-12T01:54:54.838Z,100.00
2023-05-12T01:56:59.409Z,100.00
2023-05-12T01:59:02.747Z,100.00
2023-05-12T02:01:07.460Z,100.00
2023-05-12T02:03:10.888Z,100.00
2023-05-12T02:05:15.284Z,100.00
2023-05-12T02:07:21.713Z,100.00
2023-05-12T02:09:25.339Z,100.00
2023-05-12T02:11:32.388Z,100.00
2023-05-12T02:13:36.204Z,100.00
2023-05-12T02:15:40.062Z,100.00
2023-05-12T02:17:44.873Z,100.00
2023-05-12T02:19:49.116Z,100.00
2023-05-12T02:21:52.599Z,100.00
2023-05-12T02:23:58.010Z,100.00
2023-05-12T02:26:01.370Z,100.00
2023-05-12T02:28:04.916Z,100.00
2023-05-12T02:30:09.345Z,100.00
2023-05-12T02:32:13.013Z,100.00
2023-05-12T02:34:20.995Z,100.00
2023-05-12T02:36:24.405Z,100.00
2023-05-12T02:38:27.745Z,100.00
2023-05-12T02:40:30.991Z,100.00
2023-05-12T02:42:35.774Z,100.00
2023-05-12T02:44:39.030Z,100.00
2023-05-12T02:46:43.019Z,100.00
2023-05-12T02:48:46.425Z,100.00
2023-05-12T02:50:51.206Z,100.00
2023-05-12T02:52:54.538Z,100.00
2023-05-12T02:54:58.127Z,100.00
2023-05-12T02:57:06.136Z,100.00
2023-05-12T02:59:09.486Z,100.00
2023-05-12T03:01:12.865Z,100.00
2023-05-12T03:03:17.953Z,100.00
2023-05-12T03:05:21.825Z,100.00
2023-05-12T03:07:28.446Z,100.00
2023-05-12T03:09:31.671Z,100.00
2023-05-12T03:11:35.126Z,100.00
2023-05-12T03:13:38.480Z,100.00
2023-05-12T03:15:42.103Z,100.00
2023-05-12T03:17:45.844Z,100.00
2023-05-12T03:19:49.180Z,100.00
2023-05-12T03:21:54.029Z,100.00
2023-05-12T03:23:58.801Z,100.00
2023-05-12T03:26:02.648Z,100.00
2023-05-12T03:28:06.797Z,100.00
2023-05-12T03:30:12.047Z,100.00
2023-05-12T03:32:15.347Z,100.00
2023-05-12T03:34:18.659Z,100.00
2023-05-12T03:36:22.300Z,100.00
2023-05-12T03:38:25.706Z,100.00
2023-05-12T03:40:30.909Z,100.00
2023-05-12T03:42:34.276Z,100.00
2023-05-12T03:44:38.202Z,100.00
2023-05-12T03:46:41.822Z,100.00
2023-05-12T03:48:45.152Z,100.00
2023-05-12T03:50:48.467Z,100.00
2023-05-12T03:52:56.094Z,100.00
2023-05-12T03:54:59.450Z,100.00
2023-05-12T03:57:04.244Z,100.00
2023-05-12T03:59:07.492Z,100.00
2023-05-12T04:01:11.185Z,100.00
2023-05-12T04:03:14.565Z,100.00
2023-05-12T04:05:17.968Z,100.00
2023-05-12T04:07:21.220Z,100.00
2023-05-12T04:09:25.086Z,100.00
2023-05-12T04:11:28.943Z,100.00
2023-05-12T04:13:33.927Z,100.00
2023-05-12T04:15:37.583Z,100.00
2023-05-12T04:17:41.267Z,100.00
2023-05-12T04:19:45.092Z,100.00
2023-05-12T04:21:48.948Z,100.00
2023-05-12T04:23:53.966Z,100.00
2023-05-12T04:25:59.704Z,100.00
2023-05-12T04:28:03.335Z,100.00
2023-05-12T04:30:10.329Z,100.00
2023-05-12T04:32:16.347Z,100.00
2023-05-12T04:34:20.205Z,100.00
2023-05-12T04:36:23.935Z,100.00
2023-05-12T04:38:28.045Z,100.00
2023-05-12T04:40:34.256Z,100.00
2023-05-12T04:42:39.286Z,100.00
2023-05-12T04:44:46.261Z,100.00
2023-05-12T04:46:54.447Z,100.00
2023-05-12T04:48:57.928Z,100.00
2023-05-12T04:51:01.826Z,100.00
2023-05-12T04:53:05.800Z,100.00
2023-05-12T04:55:10.564Z,100.00
2023-05-12T04:57:14.631Z,100.00
2023-05-12T04:59:18.527Z,100.00
2023-05-12T05:01:24.232Z,100.00
2023-05-12T05:03:29.485Z,100.00
2023-05-12T05:05:33.193Z,100.00
2023-05-12T05:07:37.346Z,100.00
2023-05-12T05:09:41.436Z,100.00
2023-05-12T05:11:45.390Z,100.00
2023-05-12T05:13:49.383Z,100.00
2023-05-12T05:15:55.334Z,100.00
2023-05-12T05:18:01.862Z,100.00
2023-05-12T05:20:11.734Z,100.00
2023-05-12T05:22:16.217Z,100.00
2023-05-12T05:24:21.343Z,100.00
2023-05-12T05:26:25.305Z,100.00
2023-05-12T05:28:29.098Z,100.00
2023-05-12T05:30:33.259Z,100.00
2023-05-12T05:32:40.581Z,100.00
2023-05-12T05:34:44.650Z,100.00
2023-05-12T05:36:49.627Z,100.00
2023-05-12T05:38:52.953Z,100.00
2023-05-12T05:40:57.938Z,100.00
2023-05-12T05:43:02.976Z,100.00
2023-05-12T05:45:07.917Z,100.00
2023-05-12T05:47:11.497Z,100.00
2023-05-12T05:49:15.604Z,100.00
2023-05-12T05:51:19.692Z,100.00
2023-05-12T05:53:25.646Z,100.00
2023-05-12T05:55:30.106Z,100.00
2023-05-12T05:57:34.374Z,100.00
2023-05-12T05:59:38.674Z,100.00
2023-05-12T06:01:42.615Z,100.00
2023-05-12T06:03:46.973Z,100.00
2023-05-12T06:05:51.173Z,100.00
2023-05-12T06:07:55.015Z,100.00
2023-05-12T06:10:00.937Z,100.00
2023-05-12T06:12:04.718Z,100.00
2023-05-12T06:14:09.427Z,100.00
2023-05-12T06:16:13.303Z,100.00
2023-05-12T06:18:17.106Z,100.00
2023-05-12T06:20:21.180Z,100.00
2023-05-12T06:22:25.187Z,100.00
2023-05-12T06:24:29.682Z,100.00
2023-05-12T06:26:35.119Z,100.00
2023-05-12T06:28:39.000Z,100.00
2023-05-12T06:30:43.350Z,100.00
2023-05-12T06:32:47.385Z,100.00
2023-05-12T06:34:51.486Z,100.00
2023-05-12T06:36:55.419Z,100.00
2023-05-12T06:39:00.881Z,100.00
2023-05-12T06:41:04.541Z,100.00
2023-05-12T06:43:09.778Z,100.00
2023-05-12T06:45:14.550Z,100.00
2023-05-12T06:47:18.603Z,100.00
2023-05-12T06:49:23.427Z,100.00
2023-05-12T06:51:27.943Z,100.00
2023-05-12T06:53:32.951Z,100.00
2023-05-12T06:55:36.653Z,100.00
2023-05-12T06:57:40.121Z,100.00
2023-05-12T06:59:45.619Z,100.00
2023-05-12T07:01:49.780Z,100.00
2023-05-12T07:03:53.883Z,100.00
2023-05-12T07:05:58.146Z,100.00
2023-05-12T07:08:02.341Z,100.00
2023-05-12T07:10:07.955Z,100.00
2023-05-12T07:12:11.806Z,100.00
2023-05-12T07:14:15.907Z,100.00
2023-05-12T07:16:21.940Z,100.00
2023-05-12T07:18:26.054Z,100.00
2023-05-12T07:20:30.334Z,100.00
2023-05-12T07:22:34.778Z,100.00
2023-05-12T07:24:40.102Z,100.00
2023-05-12T07:26:45.229Z,100.00
2023-05-12T07:28:49.233Z,100.00
2023-05-12T07:30:53.324Z,100.00
2023-05-12T07:33:01.604Z,100.00
2023-05-12T07:35:06.694Z,100.00
2023-05-12T07:37:10.881Z,100.00
2023-05-12T07:39:19.502Z,100.00
2023-05-12T07:41:23.321Z,100.00
2023-05-12T07:43:27.226Z,100.00
2023-05-12T07:45:31.141Z,100.00
2023-05-12T07:47:34.871Z,100.00
2023-05-12T07:49:40.501Z,100.00
2023-05-12T07:51:44.364Z,100.00
2023-05-12T07:53:48.139Z,100.00
2023-05-12T07:55:52.008Z,100.00
2023-05-12T07:57:55.888Z,100.00
2023-05-12T08:00:00.474Z,100.00
2023-05-12T08:02:04.555Z,100.00
2023-05-12T08:04:08.723Z,100.00
2023-05-12T08:06:13.573Z,100.00
2023-05-12T08:08:17.749Z,100.00
2023-05-12T08:10:21.511Z,100.00
2023-05-12T08:12:25.498Z,100.00
2023-05-12T08:14:29.066Z,100.00
2023-05-12T08:16:32.930Z,100.00
2023-05-12T08:18:36.942Z,100.00
2023-05-12T08:20:40.784Z,100.00
2023-05-12T08:22:48.092Z,100.00
2023-05-12T08:24:52.993Z,100.00
2023-05-12T08:26:56.844Z,100.00
2023-05-12T08:29:00.878Z,100.00
2023-05-12T08:31:05.390Z,100.00
2023-05-12T08:33:09.549Z,100.00
2023-05-12T08:35:13.589Z,100.00
2023-05-12T08:37:17.354Z,100.00
2023-05-12T08:39:22.936Z,100.00
2023-05-12T08:41:43.599Z,100.00
2023-05-12T08:43:51.159Z,100.00
2023-05-12T08:45:58.504Z,100.00
2023-05-12T08:48:02.557Z,100.00
2023-05-12T08:50:07.166Z,100.00
2023-05-12T08:52:12.737Z,100.00
2023-05-12T08:54:20.821Z,100.00
2023-05-12T08:58:40.932Z,100.00
2023-05-12T09:00:46.473Z,100.00
2023-05-12T09:02:54.030Z,100.00
2023-05-12T09:04:58.772Z,100.00
2023-05-12T09:07:02.509Z,100.00
2023-05-12T09:09:06.336Z,100.00
2023-05-12T09:11:13.935Z,100.00
2023-05-12T09:13:25.390Z,100.00
2023-05-12T09:15:37.566Z,100.00
2023-05-12T09:17:41.650Z,100.00
2023-05-12T09:19:45.260Z,100.00
2023-05-12T09:21:48.988Z,100.00
2023-05-12T09:23:57.386Z,100.00
2023-05-12T09:26:02.496Z,100.00
2023-05-12T09:28:06.465Z,100.00
2023-05-12T09:30:12.823Z,100.00
2023-05-12T09:32:16.874Z,100.00
2023-05-12T09:34:21.155Z,100.00
2023-05-12T09:36:26.128Z,100.00
2023-05-12T09:38:29.488Z,100.00
2023-05-12T09:40:33.275Z,100.00
2023-05-12T09:42:37.652Z,100.00
2023-05-12T09:44:42.513Z,100.00
2023-05-12T09:46:48.036Z,100.00
2023-05-12T09:48:52.246Z,100.00
2023-05-12T09:50:55.976Z,100.00
2023-05-12T09:53:02.649Z,100.00
2023-05-12T09:55:10.963Z,100.00
2023-05-12T09:57:17.625Z,100.00
2023-05-12T09:59:27.043Z,100.00
2023-05-12T10:01:31.318Z,100.00
2023-05-12T10:03:38.184Z,100.00
2023-05-12T10:05:51.212Z,100.00
2023-05-12T10:08:01.842Z,100.00
2023-05-12T10:10:09.367Z,100.00
2023-05-12T10:12:15.384Z,100.00
2023-05-12T10:14:19.248Z,100.00
2023-05-12T10:16:23.596Z,100.00
2023-05-12T10:18:27.643Z,100.00
2023-05-12T10:20:33.473Z,100.00
2023-05-12T10:22:39.663Z,100.00
2023-05-12T10:24:43.704Z,100.00
2023-05-12T10:26:47.736Z,100.00
2023-05-12T10:28:53.125Z,100.00
2023-05-12T10:30:58.750Z,100.00
2023-05-12T10:33:03.335Z,100.00
2023-05-12T10:35:12.324Z,100.00
2023-05-12T10:37:18.385Z,100.00
2023-05-12T10:39:22.202Z,100.00
2023-05-12T10:41:32.732Z,100.00
2023-05-12T10:43:45.521Z,100.00
2023-05-12T10:45:50.135Z,100.00
2023-05-12T10:47:54.317Z,100.00
2023-05-12T10:49:59.886Z,100.00
2023-05-12T10:52:03.642Z,100.00
2023-05-12T10:54:11.670Z,99.71
2023-05-12T10:56:23.160Z,99.60
2023-05-12T10:58:27.466Z,99.38
2023-05-12T11:00:32.223Z,100.00
2023-05-12T11:02:38.602Z,100.00
2023-05-12T11:04:48.765Z,100.00
2023-05-12T11:07:01.407Z,100.00
2023-05-12T11:09:09.014Z,100.00
2023-05-12T11:11:13.888Z,100.00
2023-05-12T11:13:19.422Z,100.00
2023-05-12T11:15:24.190Z,100.00
2023-05-12T11:17:27.890Z,100.00
2023-05-12T11:19:32.358Z,100.00
2023-05-12T11:21:37.991Z,100.00
2023-05-12T11:23:42.071Z,100.00
2023-05-12T11:25:48.625Z,100.00
2023-05-12T11:27:54.100Z,99.77
2023-05-12T11:30:01.661Z,99.86
2023-05-12T11:32:06.668Z,99.99
2023-05-12T11:34:13.470Z,99.50
2023-05-12T11:36:21.712Z,99.22
2023-05-12T11:38:27.405Z,98.48
2023-05-12T11:40:31.316Z,97.35
2023-05-12T11:42:36.639Z,96.76
2023-05-12T11:44:48.507Z,96.25
2023-05-12T11:46:59.423Z,95.71
2023-05-12T11:49:04.261Z,96.48
2023-05-12T11:51:09.465Z,96.03
2023-05-12T11:53:15.946Z,95.58
2023-05-12T11:55:24.734Z,95.04
2023-05-12T11:57:29.428Z,94.66
2023-05-12T11:59:35.440Z,93.41
2023-05-12T12:01:47.158Z,94.04
2023-05-12T12:03:52.508Z,93.67
2023-05-12T12:06:01.391Z,94.15
2023-05-12T12:08:10.246Z,93.87
2023-05-12T12:10:14.643Z,93.62
2023-05-12T12:12:18.437Z,93.76
2023-05-12T12:14:22.108Z,92.67
2023-05-12T12:16:28.444Z,92.60
2023-05-12T12:18:32.713Z,92.62
2023-05-12T12:20:36.467Z,91.70
2023-05-12T12:22:40.642Z,90.85
2023-05-12T12:24:44.533Z,90.84
2023-05-12T12:26:49.563Z,89.91
2023-05-12T12:28:53.917Z,89.07
2023-05-12T12:30:57.567Z,89.50
2023-05-12T12:33:02.703Z,89.04
2023-05-12T12:35:07.049Z,88.90
2023-05-12T12:37:10.588Z,89.27
2023-05-12T12:39:14.751Z,88.94
2023-05-12T12:41:18.292Z,89.68
2023-05-12T12:43:22.165Z,89.14
2023-05-12T12:45:25.932Z,88.48
2023-05-12T12:47:29.518Z,89.02
2023-05-12T12:49:34.329Z,89.46
2023-05-12T12:51:45.502Z,89.51
2023-05-12T12:53:50.074Z,89.73
2023-05-12T12:55:54.066Z,88.85
2023-05-12T12:57:58.207Z,88.23
2023-05-12T13:00:01.768Z,89.30
2023-05-12T13:02:05.654Z,90.69
2023-05-12T13:04:09.461Z,92.11
2023-05-12T13:06:14.725Z,91.38
2023-05-12T13:08:18.576Z,91.36
2023-05-12T13:10:22.355Z,91.81
2023-05-12T13:12:26.161Z,91.44
2023-05-12T13:14:30.251Z,91.36
2023-05-12T13:16:34.114Z,91.84
2023-05-12T13:18:37.805Z,91.84
2023-05-12T13:20:42.073Z,92.32
2023-05-12T13:22:48.185Z,92.34
2023-05-12T13:24:52.159Z,92.45
2023-05-12T13:26:56.771Z,93.22
2023-05-12T13:29:00.979Z,92.52
2023-05-12T13:31:04.819Z,92.50
2023-05-12T13:33:09.156Z,92.82
2023-05-12T13:35:13.078Z,91.99
2023-05-12T13:37:16.978Z,91.85
2023-05-12T13:39:21.999Z,91.69
2023-05-12T13:41:25.917Z,92.05
2023-05-12T13:43:29.769Z,92.08
2023-05-12T13:45:34.080Z,91.94
2023-05-12T13:47:37.940Z,92.03
2023-05-12T13:49:42.060Z,93.18
2023-05-12T13:51:45.700Z,93.01
2023-05-12T13:53:49.687Z,93.47
2023-05-12T13:55:55.612Z,93.36
2023-05-12T13:57:59.450Z,93.80
2023-05-12T14:00:03.377Z,93.65
2023-05-12T14:02:09.984Z,93.84
2023-05-12T14:04:14.493Z,93.88
2023-05-12T14:06:18.353Z,94.00
2023-05-12T14:08:22.149Z,94.94
2023-05-12T14:10:25.846Z,94.49
2023-05-12T14:12:31.381Z,95.01
2023-05-12T14:14:35.227Z,95.42
2023-05-12T14:16:38.967Z,95.66
2023-05-12T14:18:43.680Z,95.31
2023-05-12T14:20:48.408Z,94.32
2023-05-12T14:22:52.578Z,94.94
2023-05-12T14:24:57.226Z,95.08
2023-05-12T14:27:01.268Z,95.66
2023-05-12T14:29:08.683Z,95.96
2023-05-12T14:31:12.754Z,95.20
2023-05-12T14:33:16.625Z,95.56
2023-05-12T14:35:20.448Z,95.81
2023-05-12T14:37:24.571Z,95.28
2023-05-12T14:39:28.381Z,95.75
2023-05-12T14:41:33.217Z,95.37
2023-05-12T14:43:37.631Z,95.49
2023-05-12T14:45:43.235Z,95.84
2023-05-12T14:47:47.316Z,95.72
2023-05-12T14:49:51.211Z,95.97
2023-05-12T14:51:55.891Z,95.42
2023-05-12T14:54:00.056Z,95.56
2023-05-12T14:56:03.723Z,95.76
2023-05-12T14:58:07.733Z,95.46
2023-05-12T15:00:13.730Z,95.83
2023-05-12T15:02:18.972Z,95.76
2023-05-12T15:04:22.868Z,95.86
2023-05-12T15:06:26.603Z,95.91
2023-05-12T15:08:30.438Z,95.84
2023-05-12T15:10:34.322Z,95.58
2023-05-12T15:12:38.482Z,95.31
2023-05-12T15:14:42.295Z,95.93
2023-05-12T15:16:46.364Z,95.08
2023-05-12T15:18:51.952Z,95.19
2023-05-12T15:20:55.609Z,95.07
2023-05-12T15:22:59.551Z,94.47
2023-05-12T15:25:04.894Z,94.21
2023-05-12T15:27:09.290Z,94.93
2023-05-12T15:29:13.322Z,94.32
2023-05-12T15:31:17.182Z,94.73
2023-05-12T15:33:21.095Z,94.62
2023-05-12T15:35:27.939Z,93.78
2023-05-12T15:37:31.691Z,93.05
2023-05-12T15:39:35.579Z,93.18
2023-05-12T15:41:39.406Z,92.63
2023-05-12T15:43:43.645Z,92.09
2023-05-12T15:45:47.512Z,91.34
2023-05-12T15:47:51.470Z,91.14
2023-05-12T15:49:55.224Z,91.49
2023-05-12T15:52:01.558Z,91.25
2023-05-12T15:54:07.124Z,91.48
2023-05-12T15:56:13.878Z,91.60
2023-05-12T15:58:17.551Z,91.73
2023-05-12T16:00:22.882Z,91.20
2023-05-12T16:02:28.002Z,90.97
2023-05-12T16:04:32.112Z,91.04
2023-05-12T16:06:37.008Z,91.25
2023-05-12T16:08:42.839Z,90.75
2023-05-12T16:10:47.051Z,89.09
2023-05-12T16:12:51.684Z,88.59
2023-05-12T16:14:55.318Z,88.50
2023-05-12T16:16:59.490Z,88.26
2023-05-12T16:19:03.745Z,86.87
2023-05-12T16:21:08.587Z,85.99
2023-05-12T16:23:12.204Z,85.48
2023-05-12T16:25:17.641Z,85.07
2023-05-12T16:27:21.316Z,85.64
2023-05-12T16:29:25.182Z,86.38
2023-05-12T16:31:29.162Z,86.10
2023-05-12T16:33:32.910Z,86.61
2023-05-12T16:35:36.495Z,86.96
2023-05-12T16:37:40.304Z,86.99
2023-05-12T16:39:44.331Z,86.36
2023-05-12T16:41:49.525Z,85.33
2023-05-12T16:43:54.661Z,85.75
2023-05-12T16:46:02.337Z,86.05
2023-05-12T16:48:06.741Z,86.06
2023-05-12T16:50:11.826Z,86.62
2023-05-12T16:52:15.831Z,86.90
2023-05-12T16:54:19.532Z,86.51
2023-05-12T16:56:23.207Z,86.80
2023-05-12T16:58:31.498Z,86.81
2023-05-12T17:00:35.127Z,86.82
2023-05-12T17:02:39.258Z,86.41
2023-05-12T17:04:43.239Z,86.32
2023-05-12T17:06:49.500Z,86.78
2023-05-12T17:08:53.104Z,87.16
2023-05-12T17:10:56.925Z,86.73
2023-05-12T17:13:00.708Z,87.02
2023-05-12T17:15:08.634Z,86.46
2023-05-12T17:17:12.553Z,86.79
2023-05-12T17:19:16.454Z,87.18
2023-05-12T17:21:20.283Z,87.47
2023-05-12T17:23:23.889Z,87.55
2023-05-12T17:25:29.691Z,87.71
2023-05-12T17:27:33.649Z,87.73
2023-05-12T17:29:37.191Z,87.33
2023-05-12T17:31:42.769Z,87.53
2023-05-12T17:33:47.136Z,87.47
2023-05-12T17:36:03.860Z,87.18
2023-05-12T17:38:15.989Z,87.27
2023-05-12T17:40:19.662Z,87.41
2023-05-12T17:42:24.775Z,86.38
2023-05-12T17:44:30.272Z,86.56
2023-05-12T17:46:34.084Z,87.21
2023-05-12T17:48:39.271Z,87.29
2023-05-12T17:50:43.454Z,87.62
2023-05-12T17:52:47.820Z,87.82
2023-05-12T17:54:56.398Z,86.31
2023-05-12T17:57:00.128Z,86.50
2023-05-12T17:59:04.010Z,87.20
2023-05-12T18:01:07.950Z,87.07
2023-05-12T18:03:11.860Z,86.33
2023-05-12T18:05:17.645Z,86.85
2023-05-12T18:07:22.493Z,87.03
2023-05-12T18:09:26.330Z,86.62
2023-05-12T18:11:30.448Z,87.02
2023-05-12T18:13:34.649Z,86.66
2023-05-12T18:15:39.802Z,86.50
2023-05-12T18:17:43.505Z,86.16
2023-05-12T18:19:47.995Z,86.07
2023-05-12T18:21:54.471Z,86.09
2023-05-12T18:23:58.145Z,85.98
2023-05-12T18:26:01.695Z,86.16
2023-05-12T18:28:07.190Z,85.83
2023-05-12T18:30:13.328Z,86.26
2023-05-12T18:32:17.235Z,85.97
2023-05-12T18:34:21.298Z,86.23
2023-05-12T18:36:26.015Z,86.11
2023-05-12T18:38:30.824Z,86.91
2023-05-12T18:40:34.885Z,86.63
2023-05-12T18:42:39.047Z,86.68
2023-05-12T18:44:42.670Z,86.62
2023-05-12T18:46:47.052Z,86.55
2023-05-12T18:48:51.790Z,87.25
2023-05-12T18:50:56.890Z,87.70
2023-05-12T18:53:00.742Z,87.87
2023-05-12T18:55:06.440Z,88.83
2023-05-12T18:57:10.286Z,89.21
2023-05-12T18:59:14.293Z,89.85
2023-05-12T19:01:18.544Z,89.86
2023-05-12T19:03:22.321Z,90.52
2023-05-12T19:05:26.324Z,91.24
2023-05-12T19:07:29.896Z,91.66
2023-05-12T19:09:34.874Z,91.94
2023-05-12T19:11:40.760Z,91.40
2023-05-12T19:13:46.378Z,91.29
2023-05-12T19:15:50.404Z,90.90
2023-05-12T19:17:54.361Z,91.56
2023-05-12T19:20:00.851Z,91.48
2023-05-12T19:22:05.368Z,91.85
2023-05-12T19:24:11.096Z,92.21
2023-05-12T19:26:14.846Z,92.51
2023-05-12T19:28:20.125Z,93.43
2023-05-12T19:30:25.733Z,94.29
2023-05-12T19:32:30.538Z,94.02
2023-05-12T19:34:34.721Z,94.51
2023-05-12T19:36:38.714Z,94.46
2023-05-12T19:38:45.320Z,95.14
2023-05-12T19:40:49.394Z,95.17
2023-05-12T19:42:53.434Z,95.52
2023-05-12T19:44:59.263Z,96.34
2023-05-12T19:47:04.991Z,96.54
2023-05-12T19:49:09.105Z,96.27
2023-05-12T19:51:13.135Z,96.12
2023-05-12T19:53:16.696Z,97.06
2023-05-12T19:55:20.603Z,97.20
2023-05-12T19:57:24.859Z,97.45
2023-05-12T19:59:29.104Z,97.32
2023-05-12T20:01:34.876Z,98.02
2023-05-12T20:03:38.931Z,97.88
2023-05-12T20:05:42.878Z,98.30
2023-05-12T20:07:49.019Z,98.59
2023-05-12T20:09:53.826Z,98.15
2023-05-12T20:11:57.942Z,98.02
2023-05-12T20:14:02.404Z,97.88
2023-05-12T20:16:06.675Z,98.49
2023-05-12T20:18:14.828Z,97.62
2023-05-12T20:20:19.215Z,97.97
2023-05-12T20:22:23.013Z,98.72
2023-05-12T20:24:27.499Z,99.12
2023-05-12T20:26:32.051Z,99.35
2023-05-12T20:28:36.567Z,99.44
2023-05-12T20:30:41.452Z,99.95
2023-05-12T20:32:45.305Z,100.00
2023-05-12T20:34:52.748Z,100.00
2023-05-12T20:36:57.963Z,100.00
2023-05-12T20:39:02.116Z,100.00
2023-05-12T20:41:06.538Z,100.00
2023-05-12T20:43:10.318Z,100.00
2023-05-12T20:45:14.432Z,100.00
2023-05-12T20:47:18.144Z,100.00
2023-05-12T20:49:22.157Z,100.00
2023-05-12T20:51:27.866Z,100.00
2023-05-12T20:53:31.364Z,100.00
2023-05-12T20:55:36.228Z,100.00
2023-05-12T20:57:41.465Z,100.00
2023-05-12T20:59:45.645Z,100.00
2023-05-12T21:01:49.953Z,100.00
2023-05-12T21:03:54.053Z,100.00
2023-05-12T21:05:58.066Z,100.00
2023-05-12T21:08:03.224Z,100.00
2023-05-12T21:10:07.565Z,100.00
2023-05-12T21:12:11.824Z,100.00
2023-05-12T21:14:16.145Z,100.00
2023-05-12T21:16:19.972Z,100.00
2023-05-12T21:18:23.694Z,100.00
2023-05-12T21:20:27.779Z,100.00
2023-05-12T21:22:31.652Z,100.00
2023-05-12T21:24:38.037Z,100.00
2023-05-12T21:26:42.351Z,100.00
2023-05-12T21:28:46.720Z,100.00
2023-05-12T21:30:56.541Z,100.00
2023-05-12T21:33:02.530Z,100.00
2023-05-12T21:35:09.836Z,100.00
2023-05-12T21:37:15.161Z,100.00
2023-05-12T21:39:19.516Z,100.00
2023-05-12T21:41:27.007Z,100.00
2023-05-12T21:43:31.570Z,100.00
2023-05-12T21:45:35.883Z,100.00
2023-05-12T21:47:40.903Z,100.00
2023-05-12T21:49:45.486Z,100.00
2023-05-12T21:51:49.308Z,100.00
2023-05-12T21:53:54.850Z,100.00
2023-05-12T21:55:58.520Z,100.00
2023-05-12T21:58:03.902Z,100.00
2023-05-12T22:00:12.232Z,100.00
2023-05-12T22:02:17.452Z,100.00
2023-05-12T22:04:21.334Z,100.00
2023-05-12T22:06:25.715Z,100.00
2023-05-12T22:08:29.549Z,100.00
2023-05-12T22:10:33.994Z,100.00
2023-05-12T22:12:37.898Z,100.00
2023-05-12T22:14:43.720Z,100.00
2023-05-12T22:16:48.406Z,100.00
2023-05-12T22:18:53.018Z,100.00
2023-05-12T22:20:57.892Z,100.00
2023-05-12T22:23:03.443Z,100.00
2023-05-12T22:25:10.613Z,100.00
2023-05-12T22:27:14.375Z,100.00
2023-05-12T22:29:17.924Z,100.00
2023-05-12T22:31:26.075Z,100.00
2023-05-12T22:33:29.853Z,100.00
2023-05-12T22:35:34.262Z,100.00
2023-05-12T22:37:38.628Z,100.00
2023-05-12T22:39:42.199Z,100.00
2023-05-12T22:41:45.750Z,100.00
2023-05-12T22:43:49.357Z,100.00
2023-05-12T22:45:53.161Z,100.00
2023-05-12T22:47:58.642Z,100.00
2023-05-12T22:50:02.913Z,100.00
2023-05-12T22:52:06.974Z,100.00
2023-05-12T22:54:11.712Z,100.00
2023-05-12T22:56:15.434Z,100.00
2023-05-12T22:58:18.947Z,100.00
2023-05-12T23:00:23.059Z,100.00
2023-05-12T23:02:27.135Z,100.00
2023-05-12T23:04:32.412Z,100.00
2023-05-12T23:06:36.551Z,100.00
2023-05-12T23:08:40.582Z,100.00
2023-05-12T23:10:44.770Z,100.00
2023-05-12T23:12:48.413Z,100.00
2023-05-12T23:14:51.996Z,100.00
2023-05-12T23:16:55.906Z,100.00
2023-05-12T23:18:59.691Z,100.00
2023-05-12T23:21:04.741Z,100.00
2023-05-12T23:23:08.460Z,100.00
2023-05-12T23:25:12.328Z,100.00
2023-05-12T23:27:16.114Z,100.00
2023-05-12T23:29:20.112Z,100.00
2023-05-12T23:31:24.152Z,100.00
2023-05-12T23:33:28.324Z,100.00
2023-05-12T23:35:31.946Z,100.00
2023-05-12T23:37:37.084Z,100.00
2023-05-12T23:39:40.697Z,100.00
2023-05-12T23:41:45.814Z,100.00
2023-05-12T23:43:49.402Z,100.00
2023-05-12T23:45:53.017Z,100.00
2023-05-12T23:47:56.832Z,100.00
2023-05-12T23:50:00.503Z,100.00
2023-05-12T23:52:04.488Z,100.00
2023-05-12T23:54:10.121Z,100.00
2023-05-12T23:56:13.759Z,100.00
2023-05-12T23:58:17.402Z,100.00
